Time;durP1;ratioP1;P1;durP2;ratioP2;P2;SDS_P1;SDS_P2;PMS_P1;PMS_P2;Temp;Humidity;BMP_temperature;BMP_pressure;BME280_temperature;BME280_humidity;BME280_pressure;Samples;Min_cycle;Max_cycle;Signal;HPM_P1;HPM_P2
2023/01/11 00:01:52;;;;;;;26.10;8.60;;;;;;;2.96;100.00;101429.88;109151;1252;62415;-72
2023/01/11 00:04:27;;;;;;;30.50;8.50;;;;;;;2.92;100.00;101431.74;109068;1254;58344;-72
2023/01/11 00:06:56;;;;;;;29.40;9.80;;;;;;;2.83;100.00;101435.43;109184;1250;61177;-71
2023/01/11 00:09:25;;;;;;;21.20;8.40;;;;;;;2.79;100.00;101436.57;109065;1254;64168;-70
2023/01/11 00:11:54;;;;;;;24.60;8.30;;;;;;;2.80;100.00;101436.05;109155;1254;71358;-71
2023/01/11 00:14:23;;;;;;;24.50;8.10;;;;;;;2.76;100.00;101441.46;109110;1250;69947;-73
2023/01/11 00:16:51;;;;;;;18.40;7.20;;;;;;;2.77;100.00;101451.09;109070;1251;73207;-71
2023/01/11 00:19:20;;;;;;;22.90;8.30;;;;;;;2.75;100.00;101457.34;109145;1254;57832;-71
2023/01/11 00:21:49;;;;;;;19.30;7.80;;;;;;;2.78;100.00;101462.06;109146;1253;60221;-71
2023/01/11 00:24:18;;;;;;;25.70;8.90;;;;;;;2.68;100.00;101462.17;109145;1250;75125;-71
2023/01/11 00:26:46;;;;;;;23.70;9.20;;;;;;;2.65;100.00;101464.66;109150;1251;72627;-71
2023/01/11 00:29:15;;;;;;;21.60;8.60;;;;;;;2.61;100.00;101473.87;109126;1250;60299;-72
2023/01/11 00:31:44;;;;;;;20.80;8.90;;;;;;;2.62;100.00;101478.16;109116;1250;62360;-71
2023/01/11 00:34:13;;;;;;;23.60;9.20;;;;;;;2.59;100.00;101489.24;109077;1253;62033;-73
2023/01/11 00:36:41;;;;;;;22.40;8.60;;;;;;;2.64;100.00;101492.73;109157;1250;59807;-71
2023/01/11 00:39:10;;;;;;;24.10;8.00;;;;;;;2.68;100.00;101495.20;109091;1251;64369;-72
2023/01/11 00:50:03;;;;;;;21.20;8.30;;;;;;;2.58;100.00;101519.70;109129;1254;62194;-73
2023/01/11 00:52:32;;;;;;;16.00;7.90;;;;;;;2.58;100.00;101516.80;109145;1251;57762;-72
2023/01/11 00:55:01;;;;;;;19.50;7.90;;;;;;;2.56;100.00;101516.33;109138;1251;74333;-71
2023/01/11 00:57:29;;;;;;;24.10;8.30;;;;;;;2.50;100.00;101513.57;109140;1250;72047;-72
2023/01/11 00:59:59;;;;;;;20.40;8.20;;;;;;;2.47;100.00;101508.66;109083;1250;70970;-72
2023/01/11 01:02:28;;;;;;;18.00;7.70;;;;;;;2.38;100.00;101507.17;109137;1252;63998;-72
2023/01/11 01:04:57;;;;;;;27.40;9.00;;;;;;;2.38;100.00;101511.47;109046;1254;60749;-71
2023/01/11 01:07:26;;;;;;;21.10;8.50;;;;;;;2.40;100.00;101508.83;109136;1251;60913;-72
2023/01/11 01:09:55;;;;;;;22.20;8.60;;;;;;;2.34;100.00;101506.91;109056;1252;73332;-71
2023/01/11 01:15:11;;;;;;;20.70;8.20;;;;;;;2.29;100.00;101509.63;109079;1250;70461;-72
2023/01/11 01:17:39;;;;;;;23.20;7.90;;;;;;;2.32;100.00;101513.67;109217;1251;74436;-72
2023/01/11 01:20:09;;;;;;;20.10;7.50;;;;;;;2.26;100.00;101518.63;109198;1255;63653;-71
2023/01/11 01:22:38;;;;;;;17.90;8.60;;;;;;;2.21;100.00;101519.79;109262;1250;57706;-72
2023/01/11 01:25:08;;;;;;;19.80;8.60;;;;;;;2.20;100.00;101522.55;109200;1251;72208;-72
2023/01/11 01:27:36;;;;;;;17.90;8.20;;;;;;;2.22;100.00;101526.47;109255;1250;73269;-71
2023/01/11 01:30:09;;;;;;;22.10;9.20;;;;;;;2.12;100.00;101529.63;109038;1255;59852;-73
2023/01/11 01:32:38;;;;;;;18.20;7.40;;;;;;;2.13;100.00;101537.52;109150;1251;74499;-72
2023/01/11 01:35:07;;;;;;;25.90;9.10;;;;;;;2.09;100.00;101543.96;109219;1254;60846;-71
2023/01/11 01:37:36;;;;;;;17.70;8.60;;;;;;;2.12;100.00;101549.39;109029;1255;57806;-72
2023/01/11 01:40:06;;;;;;;20.70;7.90;;;;;;;2.17;100.00;101553.05;109159;1254;63636;-74
2023/01/11 01:42:35;;;;;;;18.20;7.70;;;;;;;2.16;100.00;101555.84;109253;1251;71661;-70
2023/01/11 01:45:06;;;;;;;16.30;8.30;;;;;;;2.20;100.00;101555.05;109184;1250;70236;-71
2023/01/11 01:48:00;;;;;;;20.70;8.50;;;;;;;2.19;100.00;101552.84;109157;1253;63697;-71
2023/01/11 01:50:40;;;;;;;21.60;7.90;;;;;;;2.15;100.00;101553.80;109080;1254;58324;-72
2023/01/11 01:53:27;;;;;;;22.40;8.30;;;;;;;2.10;100.00;101555.30;109220;1251;60466;-71
2023/01/11 01:56:00;;;;;;;22.20;9.00;;;;;;;2.09;100.00;101559.27;109136;1251;74827;-72
2023/01/11 01:58:39;;;;;;;22.60;8.40;;;;;;;2.03;100.00;101561.65;109106;1254;60672;-71
2023/01/11 02:03:55;;;;;;;20.90;7.90;;;;;;;2.01;100.00;101553.44;109181;1254;62481;-71
2023/01/11 02:06:24;;;;;;;18.80;9.00;;;;;;;1.96;100.00;101548.41;109164;1254;57773;-72
2023/01/11 02:09:10;;;;;;;18.60;8.20;;;;;;;1.95;100.00;101552.03;109116;1254;57744;-71
2023/01/11 02:11:42;;;;;;;17.50;7.70;;;;;;;1.89;100.00;101551.33;109135;1255;63744;-71
2023/01/11 02:14:16;;;;;;;18.70;8.40;;;;;;;1.86;100.00;101550.33;109245;1250;72101;-72
2023/01/11 02:16:44;;;;;;;21.40;8.80;;;;;;;1.84;100.00;101555.55;109232;1250;70787;-71
2023/01/11 02:19:32;;;;;;;17.00;8.50;;;;;;;1.83;100.00;101562.60;109200;1254;62492;-71
2023/01/11 02:22:42;;;;;;;19.90;9.60;;;;;;;1.83;100.00;101562.11;109174;1254;61082;-69
2023/01/11 02:25:57;;;;;;;16.70;6.40;;;;;;;1.76;99.97;101552.83;109141;1254;58165;-70
2023/01/11 02:28:57;;;;;;;23.50;8.40;;;;;;;1.69;99.97;101551.93;109244;1254;63766;-71
2023/01/11 02:31:34;;;;;;;23.40;8.00;;;;;;;1.64;100.00;101543.64;109178;1250;71532;-71
2023/01/11 02:34:28;;;;;;;21.50;7.90;;;;;;;1.69;100.00;101547.48;109197;1250;70957;-69
2023/01/11 02:37:26;;;;;;;20.40;8.50;;;;;;;1.65;100.00;101548.77;109130;1251;74342;-71
2023/01/11 02:40:13;;;;;;;21.90;8.80;;;;;;;1.69;100.00;101558.64;109177;1253;61102;-70
2023/01/11 02:46:12;;;;;;;19.90;9.50;;;;;;;1.68;100.00;101560.89;108949;1254;63655;-71
2023/01/11 02:49:10;;;;;;;24.20;9.10;;;;;;;1.65;100.00;101567.48;108933;1250;71857;-71
2023/01/11 02:51:46;;;;;;;21.50;8.30;;;;;;;1.59;100.00;101565.38;108945;1254;59547;-71
2023/01/11 02:54:18;;;;;;;21.20;9.50;;;;;;;1.50;99.96;101570.55;109133;1252;62519;-71
2023/01/11 02:56:53;;;;;;;18.50;9.10;;;;;;;1.51;99.74;101579.45;109100;1252;58344;-71
2023/01/11 02:59:29;;;;;;;18.40;8.70;;;;;;;1.38;99.24;101581.44;109182;1251;60126;-72
2023/01/11 03:01:58;;;;;;;20.70;9.00;;;;;;;1.41;98.53;101587.21;109175;1254;63724;-72
2023/01/11 03:04:36;;;;;;;27.50;11.10;;;;;;;1.30;98.33;101596.88;109047;1254;60924;-72
2023/01/11 03:07:47;;;;;;;21.70;9.30;;;;;;;1.21;98.49;101607.35;109201;1251;71072;-71
2023/01/11 03:10:40;;;;;;;23.40;9.60;;;;;;;1.14;98.79;101613.48;109011;1251;74389;-70
2023/01/11 03:13:30;;;;;;;18.70;8.60;;;;;;;1.19;98.24;101617.70;109063;1255;61903;-72
2023/01/11 03:16:12;;;;;;;23.50;9.00;;;;;;;1.06;96.96;101633.04;109263;1250;60930;-71
2023/01/11 03:18:51;;;;;;;20.20;8.10;;;;;;;1.04;98.06;101637.17;109245;1251;74186;-70
2023/01/11 03:21:48;;;;;;;20.90;8.50;;;;;;;0.98;97.07;101639.00;109146;1250;72041;-71
2023/01/11 03:24:29;;;;;;;23.10;8.30;;;;;;;0.85;97.39;101651.76;109066;1251;70160;-71
2023/01/11 03:27:11;;;;;;;20.70;8.70;;;;;;;0.84;97.10;101657.78;109083;1251;62544;-72
2023/01/11 03:29:59;;;;;;;22.30;9.20;;;;;;;0.82;97.85;101670.49;109177;1252;61929;-72
2023/01/11 03:32:47;;;;;;;23.50;9.20;;;;;;;0.94;97.74;101669.44;109166;1250;61878;-70
2023/01/11 03:35:27;;;;;;;21.20;9.00;;;;;;;0.84;96.78;101674.40;109159;1252;74842;-71
2023/01/11 03:38:11;;;;;;;21.70;9.20;;;;;;;0.86;96.62;101674.19;109202;1251;72259;-71
2023/01/11 03:40:52;;;;;;;27.40;9.60;;;;;;;0.79;97.27;101673.80;109171;1250;71257;-71
2023/01/11 03:43:23;;;;;;;25.00;8.90;;;;;;;0.88;96.94;101679.14;109106;1251;73907;-71
2023/01/11 03:46:03;;;;;;;17.00;8.40;;;;;;;0.87;97.00;101682.95;109104;1254;58210;-72
2023/01/11 03:48:41;;;;;;;25.80;10.10;;;;;;;0.87;96.61;101687.73;109127;1251;57765;-71
2023/01/11 03:51:16;;;;;;;18.20;8.30;;;;;;;0.77;95.58;101695.09;108956;1251;72415;-73
2023/01/11 03:53:49;;;;;;;15.00;7.20;;;;;;;0.62;96.04;101690.54;109082;1251;60924;-74
2023/01/11 03:56:29;;;;;;;18.30;7.60;;;;;;;0.61;96.49;101685.58;109164;1251;68764;-71
2023/01/11 03:58:58;;;;;;;22.90;8.80;;;;;;;0.48;97.42;101689.55;109155;1251;73015;-74
2023/01/11 04:01:27;;;;;;;24.20;9.50;;;;;;;0.47;98.91;101692.98;108832;1251;61512;-70
2023/01/11 04:03:55;;;;;;;19.60;8.80;;;;;;;0.49;98.44;101686.27;109049;1251;62085;-71
2023/01/11 04:06:24;;;;;;;19.10;8.50;;;;;;;0.39;98.60;101679.58;108972;1251;73008;-72
2023/01/11 04:08:53;;;;;;;21.30;9.10;;;;;;;0.36;99.71;101676.53;108980;1251;70325;-71
2023/01/11 04:11:22;;;;;;;17.70;8.60;;;;;;;0.34;99.77;101676.56;108920;1251;68961;-71
2023/01/11 04:13:51;;;;;;;20.70;9.30;;;;;;;0.26;99.58;101683.69;108962;1251;72996;-72
2023/01/11 04:16:19;;;;;;;22.50;9.60;;;;;;;0.27;99.65;101688.31;108859;1251;62612;-71
2023/01/11 04:18:48;;;;;;;21.20;8.40;;;;;;;0.32;99.99;101688.77;108971;1251;60151;-70
2023/01/11 04:21:17;;;;;;;21.40;8.80;;;;;;;0.39;99.95;101686.42;109031;1251;71450;-72
2023/01/11 04:23:46;;;;;;;17.20;7.80;;;;;;;0.40;99.45;101687.10;109091;1254;71452;-71
2023/01/11 04:26:16;;;;;;;24.10;9.30;;;;;;;0.25;99.76;101697.26;109073;1251;70881;-72
2023/01/11 04:28:45;;;;;;;20.50;9.20;;;;;;;0.19;100.00;101699.90;109066;1250;73332;-70
2023/01/11 04:31:14;;;;;;;23.50;8.90;;;;;;;0.19;99.99;101701.79;109066;1254;61794;-71
2023/01/11 04:33:42;;;;;;;23.90;10.10;;;;;;;0.27;99.92;101709.05;109157;1250;62198;-72
2023/01/11 04:36:11;;;;;;;20.90;9.30;;;;;;;0.27;99.84;101703.39;109180;1251;73463;-70
2023/01/11 04:38:40;;;;;;;19.70;8.90;;;;;;;0.22;98.81;101707.05;109148;1250;70318;-71
2023/01/11 04:43:56;;;;;;;18.80;8.60;;;;;;;0.20;98.87;101705.38;109132;1251;74517;-70
2023/01/11 04:46:25;;;;;;;18.40;8.70;;;;;;;0.07;98.28;101707.95;109163;1251;61046;-70
2023/01/11 04:48:55;;;;;;;26.70;11.60;;;;;;;-0.01;98.55;101701.54;109266;1249;59433;-69
2023/01/11 04:51:24;;;;;;;19.60;9.70;;;;;;;-0.01;99.38;101696.56;108995;1250;74465;-71
2023/01/11 04:53:52;;;;;;;23.40;9.90;;;;;;;-0.01;98.54;101690.93;108959;1251;71257;-74
2023/01/11 04:56:22;;;;;;;19.10;8.50;;;;;;;-0.05;99.88;101694.91;108875;1251;69937;-72
2023/01/11 04:58:51;;;;;;;17.60;8.60;;;;;;;0.02;99.86;101695.34;109084;1251;74370;-73
2023/01/11 05:01:20;;;;;;;20.50;8.80;;;;;;;0.01;99.31;101694.16;109094;1251;61980;-73
2023/01/11 05:03:50;;;;;;;21.40;9.50;;;;;;;-0.08;98.36;101698.73;109027;1251;61876;-74
2023/01/11 05:06:21;;;;;;;20.80;9.80;;;;;;;-0.09;98.85;101707.11;109017;1250;73426;-73
2023/01/11 05:08:50;;;;;;;23.70;9.60;;;;;;;-0.05;98.64;101710.66;109053;1251;71399;-77
2023/01/11 05:11:19;;;;;;;20.50;9.20;;;;;;;-0.08;98.02;101707.45;108964;1251;68493;-77
2023/01/11 05:13:49;;;;;;;20.70;9.20;;;;;;;-0.04;97.98;101712.70;108912;1250;71946;-78
2023/01/11 05:16:24;;;;;;;21.70;9.40;;;;;;;-0.21;97.66;101719.77;109203;1252;61977;-75
2023/01/11 05:18:56;;;;;;;19.70;9.70;;;;;;;-0.15;97.90;101719.88;109249;1250;59853;-78
2023/01/11 05:21:38;;;;;;;25.60;9.10;;;;;;;-0.13;97.74;101718.13;109078;1250;73563;-74
2023/01/11 05:24:15;;;;;;;18.30;8.30;;;;;;;-0.22;97.16;101722.86;108917;1249;62778;-73
2023/01/11 05:26:45;;;;;;;17.20;8.10;;;;;;;-0.30;97.41;101724.14;108647;1251;70524;-74
2023/01/11 05:29:19;;;;;;;23.00;9.50;;;;;;;-0.33;96.78;101723.15;108718;1257;76155;-73
2023/01/11 05:31:48;;;;;;;27.20;9.80;;;;;;;-0.43;96.90;101728.23;108950;1254;60082;-74
2023/01/11 05:34:17;;;;;;;22.30;8.90;;;;;;;-0.30;97.79;101726.88;108966;1254;58703;-75
2023/01/11 05:36:46;;;;;;;22.70;9.10;;;;;;;-0.23;96.47;101728.17;109268;1251;71867;-75
2023/01/11 05:39:15;;;;;;;24.40;9.00;;;;;;;-0.30;95.87;101722.77;109235;1250;69803;-75
2023/01/11 05:41:44;;;;;;;21.90;9.60;;;;;;;-0.37;96.18;101743.73;109166;1251;67909;-77
2023/01/11 05:47:01;;;;;;;21.00;9.80;;;;;;;-0.46;95.81;101741.95;108957;1251;60231;-76
2023/01/11 05:49:30;;;;;;;24.40;9.30;;;;;;;-0.44;95.70;101745.19;109174;1250;59630;-76
2023/01/11 05:51:59;;;;;;;22.10;7.90;;;;;;;-0.43;95.90;101754.94;108942;1250;72419;-75
2023/01/11 05:54:28;;;;;;;22.80;9.60;;;;;;;-0.53;95.80;101758.62;109176;1249;70345;-77
2023/01/11 05:56:57;;;;;;;23.20;10.40;;;;;;;-0.56;96.25;101760.38;109135;1249;67900;-75
2023/01/11 05:59:26;;;;;;;18.60;9.60;;;;;;;-0.57;96.19;101760.88;109137;1251;73898;-78
2023/01/11 06:01:56;;;;;;;21.90;10.10;;;;;;;-0.49;96.29;101767.14;108975;1254;61675;-76
2023/01/11 06:04:26;;;;;;;27.20;10.00;;;;;;;-0.58;95.16;101773.55;108829;1250;59026;-76
2023/01/11 06:06:55;;;;;;;17.90;8.50;;;;;;;-0.59;95.78;101776.31;109186;1250;73179;-76
2023/01/11 06:09:24;;;;;;;17.30;8.60;;;;;;;-0.59;95.31;101781.44;109015;1251;72200;-77
2023/01/11 06:11:53;;;;;;;19.90;9.80;;;;;;;-0.67;94.75;101783.04;108998;1250;67371;-75
2023/01/11 06:14:22;;;;;;;19.30;9.30;;;;;;;-0.68;95.44;101781.52;109205;1251;71096;-75
2023/01/11 06:16:51;;;;;;;21.30;9.80;;;;;;;-0.72;94.98;101788.74;108929;1255;60482;-76
2023/01/11 06:19:20;;;;;;;20.00;8.90;;;;;;;-0.66;95.87;101795.70;108766;1249;58960;-75
2023/01/11 06:21:49;;;;;;;18.90;9.30;;;;;;;-0.68;95.41;101794.16;108925;1250;71715;-76
2023/01/11 06:24:18;;;;;;;26.90;10.90;;;;;;;-0.70;95.24;101787.18;109114;1251;72101;-76
2023/01/11 06:26:47;;;;;;;19.40;7.90;;;;;;;-0.66;95.63;101786.98;108864;1250;67769;-76
2023/01/11 06:29:16;;;;;;;19.90;8.90;;;;;;;-0.65;94.59;101786.11;108882;1250;72036;-77
2023/01/11 06:31:46;;;;;;;23.00;9.30;;;;;;;-0.72;94.23;101789.41;109142;1250;60803;-76
2023/01/11 06:34:15;;;;;;;20.80;9.50;;;;;;;-0.70;94.82;101787.86;109001;1250;61129;-76
2023/01/11 06:36:44;;;;;;;24.00;11.20;;;;;;;-0.63;94.56;101801.14;109110;1250;73116;-79
2023/01/11 06:39:13;;;;;;;25.50;10.00;;;;;;;-0.71;93.96;101797.64;109005;1250;70297;-73
2023/01/11 06:41:42;;;;;;;24.80;10.50;;;;;;;-0.75;94.54;101800.23;109135;1249;68696;-73
2023/01/11 06:44:11;;;;;;;21.70;10.10;;;;;;;-0.78;94.55;101811.36;109152;1252;72765;-76
2023/01/11 06:46:40;;;;;;;25.10;11.80;;;;;;;-0.65;94.89;101829.73;109194;1250;62628;-74
2023/01/11 06:49:10;;;;;;;20.90;9.60;;;;;;;-0.58;94.45;101827.45;109337;1250;60152;-74
2023/01/11 06:51:39;;;;;;;26.10;10.80;;;;;;;-0.58;94.39;101809.48;109198;1250;72864;-74
2023/01/11 06:54:08;;;;;;;22.90;9.90;;;;;;;-0.63;94.37;101805.60;109269;1250;71428;-74
2023/01/11 06:56:36;;;;;;;29.20;11.40;;;;;;;-0.62;93.64;101822.86;109262;1250;70823;-75
2023/01/11 06:59:05;;;;;;;23.00;11.70;;;;;;;-0.69;93.87;101827.55;109162;1250;72310;-76
2023/01/11 07:01:34;;;;;;;19.80;7.80;;;;;;;-0.65;93.64;101826.83;109199;1251;59739;-75
2023/01/11 07:04:03;;;;;;;24.30;11.10;;;;;;;-0.63;94.42;101823.91;109180;1250;59791;-74
2023/01/11 07:06:35;;;;;;;28.20;11.00;;;;;;;-0.71;93.88;101825.33;108952;1249;72428;-74
2023/01/11 07:09:04;;;;;;;25.60;9.50;;;;;;;-0.77;94.05;101823.16;108994;1249;69987;-75
2023/01/11 07:11:37;;;;;;;24.90;10.90;;;;;;;-0.85;94.59;101823.23;109002;1249;70840;-75
2023/01/11 07:14:06;;;;;;;;;;;;;;;-0.80;95.09;101829.52;109060;1251;71255;-75
2023/01/11 07:16:35;;;;;;;28.80;10.50;;;;;;;-0.76;94.33;101827.42;109058;1251;61862;-74
2023/01/11 07:19:04;;;;;;;24.50;9.80;;;;;;;-0.77;94.25;101831.55;108868;1250;60835;-75
2023/01/11 07:21:32;;;;;;;25.90;9.90;;;;;;;-0.73;94.20;101845.71;109033;1250;73773;-74
2023/01/11 07:24:02;;;;;;;18.70;10.50;;;;;;;-0.68;93.37;101848.92;109010;1249;69913;-75
2023/01/11 07:26:32;;;;;;;27.90;11.40;;;;;;;-0.59;93.49;101844.92;109052;1249;69778;-75
2023/01/11 07:29:00;;;;;;;27.50;11.10;;;;;;;-0.61;92.86;101845.11;109067;1250;73813;-76
2023/01/11 07:31:29;;;;;;;24.70;10.40;;;;;;;-0.63;92.91;101852.65;109035;1251;58381;-75
2023/01/11 07:33:58;;;;;;;26.40;11.50;;;;;;;-0.63;92.54;101861.37;109074;1251;58700;-74
2023/01/11 07:36:28;;;;;;;23.20;10.90;;;;;;;-0.67;92.64;101871.67;109060;1250;72626;-75
2023/01/11 07:38:57;;;;;;;21.60;10.80;;;;;;;-0.66;93.71;101866.36;109083;1250;70421;-77
2023/01/11 07:44:15;;;;;;;25.20;11.10;;;;;;;-0.69;92.44;101874.94;109032;1250;73059;-76
2023/01/11 07:46:44;;;;;;;24.60;10.70;;;;;;;-0.68;93.44;101880.75;108906;1254;62605;-74
2023/01/11 07:49:12;;;;;;;31.00;10.80;;;;;;;-0.65;93.36;101895.95;109101;1250;60854;-75
2023/01/11 07:51:41;;;;;;;24.00;10.60;;;;;;;-0.66;92.35;101905.37;109011;1250;73053;-76
2023/01/11 07:54:10;;;;;;;22.60;10.10;;;;;;;-0.64;92.58;101914.09;109082;1251;69582;-76
2023/01/11 07:56:39;;;;;;;21.00;9.80;;;;;;;-0.70;92.82;101904.38;109083;1250;69785;-75
2023/01/11 07:59:08;;;;;;;28.90;11.10;;;;;;;-0.69;93.29;101912.06;108786;1250;74254;-75
2023/01/11 08:01:37;;;;;;;35.40;11.60;;;;;;;-0.66;92.13;101914.60;108920;1251;60830;-76
2023/01/11 08:04:10;;;;;;;25.10;10.90;;;;;;;-0.64;91.52;101907.23;108904;1250;58743;-76
2023/01/11 08:06:40;;;;;;;25.90;11.70;;;;;;;-0.71;91.28;101901.13;108972;1251;71939;-75
2023/01/11 08:09:10;;;;;;;28.00;11.60;;;;;;;-0.89;92.96;101905.69;108824;1250;72719;-76
2023/01/11 08:14:38;;;;;;;23.90;9.80;;;;;;;-0.91;92.96;101906.73;109108;1251;71941;-75
2023/01/11 08:17:15;;;;;;;29.80;12.20;;;;;;;-0.86;91.89;101902.60;109081;1251;61328;-75
2023/01/11 08:19:44;;;;;;;24.20;11.60;;;;;;;-0.80;92.71;101899.13;108924;1251;60148;-76
2023/01/11 08:22:12;;;;;;;28.80;12.60;;;;;;;-0.82;92.80;101905.47;109049;1249;73987;-76
2023/01/11 08:24:41;;;;;;;29.90;13.50;;;;;;;-0.79;92.20;101915.90;109030;1250;70102;-76
2023/01/11 08:27:10;;;;;;;30.00;13.40;;;;;;;-0.67;91.48;101917.34;109058;1253;68640;-74
2023/01/11 08:29:42;;;;;;;34.00;13.80;;;;;;;-0.67;91.69;101914.29;109035;1254;72588;-76
2023/01/11 08:32:12;;;;;;;28.20;12.30;;;;;;;-0.62;91.77;101920.92;109152;1252;59525;-76
2023/01/11 08:34:41;;;;;;;25.00;11.60;;;;;;;-0.62;91.59;101931.02;108906;1250;59180;-76
2023/01/11 08:37:09;;;;;;;24.30;11.40;;;;;;;-0.61;91.05;101937.16;109049;1249;74033;-75
2023/01/11 08:39:39;;;;;;;26.00;12.30;;;;;;;-0.58;90.86;101928.75;108909;1250;71975;-74
2023/01/11 08:42:08;;;;;;;30.00;12.40;;;;;;;-0.62;90.29;101937.86;109127;1250;70243;-77
2023/01/11 08:44:37;;;;;;;22.40;11.10;;;;;;;-0.62;90.77;101929.80;109043;1250;73410;-76
2023/01/11 08:47:06;;;;;;;28.10;11.70;;;;;;;-0.64;90.07;101930.50;109018;1251;62952;-75
2023/01/11 08:49:35;;;;;;;25.30;11.30;;;;;;;-0.59;90.18;101929.61;109089;1250;62062;-75
2023/01/11 08:52:03;;;;;;;26.00;12.30;;;;;;;-0.60;90.39;101934.59;109139;1250;72512;-74
2023/01/11 08:54:32;;;;;;;25.90;10.30;;;;;;;-0.67;90.52;101932.92;109084;1250;70487;-76
2023/01/11 08:57:01;;;;;;;27.80;11.40;;;;;;;-0.71;90.22;101941.16;109042;1254;68662;-76
2023/01/11 08:59:30;;;;;;;36.30;12.90;;;;;;;-0.71;89.89;101955.02;109133;1251;72035;-75
2023/01/11 09:02:00;;;;;;;24.10;11.10;;;;;;;-0.72;90.07;101955.20;109174;1253;59741;-75
2023/01/11 09:04:29;;;;;;;33.10;12.90;;;;;;;-0.70;89.87;101952.95;109137;1250;61215;-75
2023/01/11 09:06:58;;;;;;;25.30;12.10;;;;;;;-0.68;90.25;101947.30;109120;1250;73365;-74
2023/01/11 09:09:27;;;;;;;28.60;12.70;;;;;;;-0.63;89.59;101937.51;109094;1250;69816;-75
2023/01/11 09:11:57;;;;;;;33.10;12.50;;;;;;;-0.73;89.33;101925.77;109140;1250;69452;-75
2023/01/11 09:14:27;;;;;;;25.40;13.20;;;;;;;-0.74;90.57;101914.98;109128;1251;71726;-77
2023/01/11 09:16:56;;;;;;;26.40;11.10;;;;;;;-0.70;91.21;101926.95;108966;1250;59707;-77
2023/01/11 09:19:25;;;;;;;23.80;11.70;;;;;;;-0.77;90.94;101927.67;109130;1251;58606;-75
2023/01/11 09:21:59;;;;;;;26.70;10.90;;;;;;;-0.74;92.07;101923.05;109131;1251;71676;-75
2023/01/11 09:24:30;;;;;;;23.80;11.60;;;;;;;-0.79;90.97;101906.31;109144;1250;72746;-77
2023/01/11 09:26:59;;;;;;;28.00;12.50;;;;;;;-0.63;91.37;101914.77;109159;1253;69110;-74
2023/01/11 09:29:28;;;;;;;18.50;10.10;;;;;;;-0.70;90.49;101900.95;109004;1254;71437;-79
2023/01/11 09:31:57;;;;;;;22.30;11.70;;;;;;;-0.75;90.42;101907.98;108969;1251;59685;-77
2023/01/11 09:34:26;;;;;;;24.50;11.90;;;;;;;-0.73;90.77;101913.81;109237;1250;61172;-78
2023/01/11 09:36:58;;;;;;;40.60;14.10;;;;;;;-0.73;91.41;101939.45;109252;1250;75010;-75
2023/01/11 09:39:27;;;;;;;19.70;10.20;;;;;;;-0.57;91.16;101957.50;108999;1255;70671;-74
2023/01/11 09:42:38;;;;;;;35.00;14.80;;;;;;;-0.63;88.99;101952.23;109198;1254;68643;-77
2023/01/11 09:45:29;;;;;;;36.10;16.70;;;;;;;-0.71;89.76;101958.25;109144;1254;71148;-75
2023/01/11 09:48:13;;;;;;;39.40;13.90;;;;;;;-0.69;88.95;101953.64;108867;1257;61190;-75
2023/01/11 09:50:47;;;;;;;39.80;15.90;;;;;;;-0.61;88.98;101952.91;109199;1250;59080;-74
2023/01/11 09:53:49;;;;;;;48.60;15.10;;;;;;;-0.59;89.71;101957.68;108883;1251;73953;-75
2023/01/11 09:56:37;;;;;;;34.60;14.00;;;;;;;-0.61;89.10;101965.04;109123;1250;72245;-76
2023/01/11 09:59:25;;;;;;;31.80;13.80;;;;;;;-0.62;88.78;101958.20;109198;1253;69332;-75
2023/01/11 10:02:08;;;;;;;26.10;12.10;;;;;;;-0.76;89.12;101964.45;109113;1251;72332;-76
2023/01/11 10:05:22;;;;;;;27.40;12.00;;;;;;;-0.78;88.65;101967.89;109069;1251;62889;-76
2023/01/11 10:08:06;;;;;;;21.30;10.40;;;;;;;-0.89;90.63;101949.98;109077;1249;61244;-75
2023/01/11 10:11:05;;;;;;;28.00;11.50;;;;;;;-0.88;89.80;101944.85;109100;1253;74715;-77
2023/01/11 10:14:17;;;;;;;25.40;10.70;;;;;;;-0.97;90.26;101934.13;108927;1251;72195;-76
2023/01/11 10:17:41;;;;;;;25.80;12.10;;;;;;;-0.99;90.05;101937.72;109171;1251;68445;-75
2023/01/11 10:20:39;;;;;;;26.50;11.40;;;;;;;-0.97;90.03;101954.30;109131;1250;73511;-75
2023/01/11 10:23:40;;;;;;;29.00;12.70;;;;;;;-0.87;89.84;101959.71;109052;1251;60454;-74
2023/01/11 10:26:23;;;;;;;30.60;11.30;;;;;;;-0.75;89.19;101967.02;108942;1254;58812;-76
2023/01/11 10:32:20;;;;;;;25.80;11.70;;;;;;;-1.02;88.65;101970.05;108884;1251;69584;-73
2023/01/11 10:35:16;;;;;;;20.90;10.00;;;;;;;-0.89;88.94;101970.85;108972;1250;68559;-76
2023/01/11 10:41:05;;;;;;;43.70;14.30;;;;;;;-0.90;89.23;101957.52;109169;1249;62269;-75
2023/01/11 10:43:43;;;;;;;31.10;12.00;;;;;;;-0.91;88.73;101954.45;109102;1250;59764;-75
2023/01/11 10:46:20;;;;;;;36.10;12.80;;;;;;;-0.93;89.20;101962.65;109178;1250;74455;-76
2023/01/11 10:49:02;;;;;;;26.80;11.30;;;;;;;-0.84;88.88;101972.02;108988;1250;70669;-76
2023/01/11 10:51:39;;;;;;;28.50;12.70;;;;;;;-0.80;88.60;101992.19;108961;1250;67862;-77
2023/01/11 10:54:28;;;;;;;27.50;11.90;;;;;;;-0.66;88.84;101991.25;108836;1253;72096;-74
2023/01/11 10:57:50;;;;;;;25.20;11.90;;;;;;;-0.69;87.97;101979.13;109040;1253;60509;-75
2023/01/11 11:00:50;;;;;;;27.70;11.40;;;;;;;-0.81;88.67;101969.45;109142;1250;60449;-75
2023/01/11 11:03:58;;;;;;;23.00;11.90;;;;;;;-0.86;89.87;101961.94;109170;1250;71572;-77
2023/01/11 11:06:44;;;;;;;30.50;12.10;;;;;;;-0.82;89.17;101967.92;108962;1249;72144;-77
2023/01/11 11:09:34;;;;;;;31.60;12.60;;;;;;;-0.72;89.07;101967.00;109063;1250;69133;-75
2023/01/11 11:12:29;;;;;;;25.10;12.80;;;;;;;-0.82;88.30;101974.93;109172;1250;73862;-76
2023/01/11 11:15:00;;;;;;;22.60;11.30;;;;;;;-1.01;91.16;101966.80;108788;1254;61739;-75
2023/01/11 11:17:39;;;;;;;28.70;13.90;;;;;;;-0.97;90.25;101954.65;108962;1250;60072;-75
2023/01/11 11:20:28;;;;;;;33.70;13.10;;;;;;;-0.91;90.99;101944.87;108797;1250;72466;-76
2023/01/11 11:22:57;;;;;;;22.20;10.30;;;;;;;-0.99;89.60;101947.64;108826;1250;70478;-76
2023/01/11 11:25:39;;;;;;;26.90;12.10;;;;;;;-0.89;91.39;101959.22;108820;1250;68242;-77
2023/01/11 11:28:13;;;;;;;25.40;11.80;;;;;;;-0.80;89.74;101956.27;108983;1250;72795;-75
2023/01/11 11:30:46;;;;;;;21.40;10.60;;;;;;;-0.77;89.35;101943.09;109119;1251;59688;-76
2023/01/11 11:33:39;;;;;;;24.80;11.40;;;;;;;-0.73;89.63;101937.75;108887;1251;61412;-76
2023/01/11 11:36:13;;;;;;;29.10;11.10;;;;;;;-0.79;89.23;101936.59;109103;1250;73371;-77
2023/01/11 11:39:17;;;;;;;30.70;12.70;;;;;;;-0.79;88.82;101924.95;108978;1249;70937;-75
2023/01/11 11:41:48;;;;;;;32.80;11.90;;;;;;;-0.76;88.92;101934.52;109130;1250;69724;-76
2023/01/11 11:44:23;;;;;;;31.90;13.10;;;;;;;-0.63;89.63;101933.59;109067;1250;70466;-76
2023/01/11 11:47:01;;;;;;;23.20;11.10;;;;;;;-0.68;87.55;101935.48;109072;1254;62121;-77
2023/01/11 11:49:35;;;;;;;26.40;11.60;;;;;;;-0.83;87.91;101937.47;109029;1251;61032;-76
2023/01/11 11:52:05;;;;;;;25.60;10.90;;;;;;;-0.79;88.17;101927.70;108836;1251;72977;-76
2023/01/11 11:54:46;;;;;;;27.70;12.10;;;;;;;-0.62;87.48;101932.72;108960;1250;69676;-78
2023/01/11 11:57:29;;;;;;;25.00;11.20;;;;;;;-0.62;87.20;101943.48;109155;1251;70455;-76
2023/01/11 12:00:21;;;;;;;35.70;12.40;;;;;;;-0.69;87.40;101944.91;108891;1251;73562;-77
2023/01/11 12:02:58;;;;;;;32.20;14.00;;;;;;;-0.74;88.60;101945.61;108952;1251;60746;-77
2023/01/11 12:05:28;;;;;;;26.90;12.60;;;;;;;-0.83;88.31;101937.64;109130;1251;61588;-76
2023/01/11 12:07:57;;;;;;;25.80;13.40;;;;;;;-0.75;87.97;101939.82;109009;1251;74392;-76
2023/01/11 12:10:29;;;;;;;32.80;13.80;;;;;;;-0.77;87.40;101945.47;109071;1251;69369;-79
2023/01/11 12:13:01;;;;;;;28.90;13.90;;;;;;;-0.77;87.80;101940.00;108832;1251;70468;-75
2023/01/11 12:15:33;;;;;;;31.10;15.00;;;;;;;-0.91;87.16;101941.78;109008;1251;72571;-76
2023/01/11 12:18:26;;;;;;;28.00;14.60;;;;;;;-0.92;88.35;101937.34;108925;1251;61271;-77